createdAt,value
2018-09-06T00:00:19.412Z,58.80
2018-09-06T00:05:11.052Z,58.90
2018-09-06T00:10:02.267Z,58.80
2018-09-06T00:14:53.156Z,59.00
2018-09-06T00:19:44.063Z,59.50
2018-09-06T00:24:34.993Z,59.00
2018-09-06T00:29:25.961Z,58.90
2018-09-06T00:34:16.901Z,58.80
2018-09-06T00:39:07.805Z,58.90
2018-09-06T00:43:58.729Z,59.20
2018-09-06T00:48:49.657Z,59.10
2018-09-06T00:53:40.608Z,59.30
2018-09-06T00:58:31.550Z,59.30
2018-09-06T01:03:22.456Z,59.50
2018-09-06T01:08:13.368Z,59.70
2018-09-06T01:13:04.285Z,59.70
2018-09-06T01:17:55.187Z,59.70
2018-09-06T01:22:46.125Z,59.70
2018-09-06T01:27:37.053Z,60.00
2018-09-06T01:32:27.962Z,59.90
2018-09-06T01:37:18.904Z,59.90
2018-09-06T01:42:10.586Z,60.00
2018-09-06T01:47:01.533Z,60.00
2018-09-06T01:51:53.428Z,59.70
2018-09-06T01:56:44.353Z,59.60
2018-09-06T02:01:35.263Z,59.60
2018-09-06T02:06:26.177Z,59.60
2018-09-06T02:11:17.095Z,59.60
2018-09-06T02:16:08.028Z,59.60
2018-09-06T02:20:58.940Z,59.60
2018-09-06T02:25:49.863Z,59.60
2018-09-06T02:30:40.780Z,59.70
2018-09-06T02:35:31.697Z,59.80
2018-09-06T02:40:22.624Z,59.70
2018-09-06T02:45:13.603Z,59.80
2018-09-06T02:50:05.261Z,59.90
2018-09-06T02:54:56.167Z,59.90
2018-09-06T02:59:47.821Z,60.00
2018-09-06T03:04:38.730Z,60.00
2018-09-06T03:09:30.405Z,59.90
2018-09-06T03:14:22.090Z,60.00
2018-09-06T03:19:13.748Z,60.00
2018-09-06T03:24:04.761Z,60.00
2018-09-06T03:28:55.689Z,60.00
2018-09-06T03:33:48.080Z,60.20
2018-09-06T03:38:39.020Z,60.00
2018-09-06T03:43:29.937Z,60.00
2018-09-06T03:48:20.887Z,60.00
2018-09-06T03:53:11.814Z,60.40
2018-09-06T03:58:02.730Z,60.00
2018-09-06T04:02:53.664Z,59.80
2018-09-06T04:07:44.592Z,59.70
2018-09-06T04:12:36.245Z,60.10
2018-09-06T04:17:27.237Z,60.00
2018-09-06T04:22:18.147Z,60.00
2018-09-06T04:27:09.062Z,60.00
2018-09-06T04:31:59.965Z,60.00
2018-09-06T04:36:50.893Z,60.40
2018-09-06T04:41:41.806Z,60.20
2018-09-06T04:46:32.739Z,60.50
2018-09-06T04:51:24.417Z,60.30
2018-09-06T04:56:15.357Z,60.90
2018-09-06T05:01:06.290Z,60.60
2018-09-06T05:05:57.195Z,60.40
2018-09-06T05:10:48.110Z,61.30
2018-09-06T05:15:39.824Z,61.20
2018-09-06T05:20:30.743Z,61.20
2018-09-06T05:25:22.402Z,60.60
2018-09-06T05:30:13.300Z,60.60
2018-09-06T05:35:05.007Z,60.60
2018-09-06T05:39:55.877Z,60.50
2018-09-06T05:44:49.508Z,60.60
2018-09-06T05:49:40.452Z,60.60
2018-09-06T05:54:32.100Z,60.70
2018-09-06T05:59:23.009Z,60.70
2018-09-06T06:04:13.935Z,60.60
2018-09-06T06:09:04.845Z,60.70
2018-09-06T06:13:56.504Z,60.80
2018-09-06T06:18:47.412Z,60.80
2018-09-06T06:23:38.337Z,60.80
2018-09-06T06:28:29.332Z,60.90
2018-09-06T06:33:20.998Z,60.90
2018-09-06T06:38:11.934Z,60.90
2018-09-06T06:43:02.841Z,60.90
2018-09-06T06:47:53.737Z,61.00
2018-09-06T06:52:44.658Z,61.00
2018-09-06T06:57:35.576Z,61.10
2018-09-06T07:02:26.507Z,61.30
2018-09-06T07:07:18.309Z,61.30
2018-09-06T07:12:09.222Z,61.40
2018-09-06T07:17:00.180Z,61.30
2018-09-06T07:21:51.100Z,61.70
2018-09-06T07:26:42.766Z,61.80
2018-09-06T07:31:33.690Z,61.90
2018-09-06T07:36:24.598Z,61.70
2018-09-06T07:41:15.596Z,61.60
2018-09-06T07:46:06.529Z,61.60
2018-09-06T07:50:57.448Z,61.60
2018-09-06T07:55:48.397Z,61.60
2018-09-06T08:00:40.077Z,61.60
2018-09-06T08:05:31.778Z,61.60
2018-09-06T08:10:22.691Z,61.60
2018-09-06T08:15:13.596Z,61.50
2018-09-06T08:20:05.277Z,61.70
2018-09-06T08:24:56.973Z,61.80
2018-09-06T08:29:48.632Z,61.70
2018-09-06T08:34:39.548Z,61.70
2018-09-06T08:39:30.453Z,61.60
2018-09-06T08:44:21.376Z,61.60
2018-09-06T08:49:12.303Z,61.70
2018-09-06T08:54:03.205Z,61.70
2018-09-06T08:58:54.129Z,61.60
2018-09-06T09:03:46.540Z,61.40
2018-09-06T09:08:37.452Z,61.40
2018-09-06T09:13:28.385Z,61.40
2018-09-06T09:18:19.833Z,61.40
2018-09-06T09:23:10.664Z,61.40
2018-09-06T09:28:01.567Z,61.40
2018-09-06T09:32:52.489Z,61.40
2018-09-06T09:37:43.722Z,61.30
2018-09-06T09:42:34.653Z,61.10
2018-09-06T09:52:16.121Z,60.80
2018-09-06T09:57:07.064Z,60.70
2018-09-06T10:01:57.974Z,60.70
2018-09-06T10:06:49.640Z,60.30
2018-09-06T10:11:40.608Z,60.30
2018-09-06T10:16:33.013Z,60.00
2018-09-06T10:21:24.664Z,60.00
2018-09-06T10:26:15.572Z,60.00
2018-09-06T10:31:07.235Z,59.50
2018-09-06T10:35:58.137Z,59.40
2018-09-06T10:40:49.074Z,59.10
2018-09-06T10:45:40.015Z,59.40
2018-09-06T10:50:30.900Z,59.20
2018-09-06T10:55:21.812Z,59.20
2018-09-06T11:00:12.712Z,58.90
2018-09-06T11:05:03.603Z,58.70
2018-09-06T11:09:54.536Z,58.40
2018-09-06T11:14:45.450Z,58.00
2018-09-06T11:19:37.142Z,57.50
2018-09-06T11:24:28.789Z,57.10
2018-09-06T11:29:19.801Z,56.90
2018-09-06T11:34:11.435Z,56.50
2018-09-06T11:39:02.359Z,56.40
2018-09-06T11:43:53.286Z,55.70
2018-09-06T11:48:44.184Z,55.40
2018-09-06T11:53:35.816Z,53.60
2018-09-06T11:58:26.704Z,53.60
2018-09-06T12:03:17.661Z,53.00
2018-09-06T12:08:09.321Z,52.90
2018-09-06T12:13:00.242Z,52.80
2018-09-06T12:17:51.876Z,53.10
2018-09-06T12:22:42.775Z,53.00
2018-09-06T12:27:33.745Z,52.00
2018-09-06T12:32:24.663Z,51.80
2018-09-06T12:37:15.515Z,51.80
2018-09-06T12:42:06.442Z,52.80
2018-09-06T12:46:57.414Z,52.70
2018-09-06T12:51:49.795Z,51.40
2018-09-06T12:56:40.918Z,51.40
2018-09-06T13:01:31.777Z,51.30
2018-09-06T13:06:23.452Z,51.60
2018-09-06T13:11:14.375Z,51.60
2018-09-06T13:16:05.304Z,51.90
2018-09-06T13:20:56.981Z,52.10
2018-09-06T13:25:47.905Z,52.00
2018-09-06T13:30:38.823Z,52.50
2018-09-06T13:35:30.527Z,52.70
2018-09-06T13:40:21.388Z,52.70
2018-09-06T13:45:13.036Z,52.20
2018-09-06T13:50:04.007Z,52.20
2018-09-06T13:54:55.661Z,51.60
2018-09-06T13:59:46.587Z,51.60
2018-09-06T14:04:38.259Z,52.10
2018-09-06T14:09:29.918Z,52.00
2018-09-06T14:14:20.820Z,52.00
2018-09-06T14:19:12.472Z,52.40
2018-09-06T14:24:03.479Z,52.40
2018-09-06T14:28:54.820Z,52.60
2018-09-06T14:33:45.737Z,52.80
2018-09-06T14:38:36.677Z,53.00
2018-09-06T14:43:27.553Z,53.20
2018-09-06T14:48:19.225Z,53.20
2018-09-06T14:53:10.862Z,52.40
2018-09-06T14:58:01.760Z,52.30
2018-09-06T15:02:52.680Z,52.80
2018-09-06T15:07:43.597Z,52.60
2018-09-06T15:12:34.519Z,52.60
2018-09-06T15:17:25.411Z,52.80
2018-09-06T15:22:16.332Z,52.70
2018-09-06T15:27:07.257Z,52.90
2018-09-06T15:31:59.022Z,53.10
2018-09-06T15:36:49.949Z,53.20
2018-09-06T15:41:40.864Z,53.30
2018-09-06T15:46:31.858Z,53.50
2018-09-06T15:51:22.757Z,53.40
2018-09-06T15:56:13.699Z,53.50
2018-09-06T16:01:04.637Z,53.50
2018-09-06T16:05:55.564Z,53.70
2018-09-06T16:10:47.246Z,53.50
2018-09-06T16:15:38.924Z,53.80
2018-09-06T16:20:30.571Z,53.60
2018-09-06T16:25:21.556Z,53.60
2018-09-06T16:30:12.509Z,53.50
2018-09-06T16:35:03.432Z,53.70
2018-09-06T16:39:54.429Z,53.60
2018-09-06T16:44:45.365Z,53.60
2018-09-06T16:49:36.291Z,53.70
2018-09-06T16:54:27.204Z,54.00
2018-09-06T16:59:18.117Z,54.00
2018-09-06T17:04:09.016Z,54.20
2018-09-06T17:09:00.664Z,54.30
2018-09-06T17:13:51.584Z,54.30
2018-09-06T17:18:42.483Z,54.50
2018-09-06T17:23:33.405Z,54.50
2018-09-06T17:28:25.047Z,54.60
2018-09-06T17:33:16.014Z,54.50
2018-09-06T17:38:06.880Z,54.60
2018-09-06T17:42:57.840Z,54.80
2018-09-06T17:47:48.807Z,54.70
2018-09-06T17:52:39.692Z,54.70
2018-09-06T17:57:30.609Z,54.80
2018-09-06T18:02:21.531Z,54.80
2018-09-06T18:07:12.532Z,54.70
2018-09-06T18:12:04.195Z,55.40
2018-09-06T18:16:55.109Z,54.70
2018-09-06T18:21:46.032Z,54.80
2018-09-06T18:26:36.933Z,54.90
2018-09-06T18:31:27.840Z,55.00
2018-09-06T18:36:18.744Z,55.00
2018-09-06T18:41:10.433Z,55.00
2018-09-06T18:46:02.087Z,55.00
2018-09-06T18:50:53.009Z,54.80
2018-09-06T18:55:43.909Z,55.00
2018-09-06T19:00:34.849Z,55.10
2018-09-06T19:05:25.744Z,54.90
2018-09-06T19:10:16.651Z,55.00
2018-09-06T19:15:08.310Z,55.00
2018-09-06T19:19:59.245Z,55.50
2018-09-06T19:24:50.175Z,55.00
2018-09-06T19:29:41.823Z,55.10
2018-09-06T19:34:32.795Z,55.00
2018-09-06T19:39:23.733Z,55.00
2018-09-06T19:44:14.675Z,55.00
2018-09-06T19:49:05.580Z,55.10
2018-09-06T19:53:56.549Z,55.10
2018-09-06T19:58:47.515Z,55.20
2018-09-06T20:03:38.457Z,55.20
2018-09-06T20:08:30.153Z,55.30
2018-09-06T20:13:21.073Z,55.10
2018-09-06T20:18:11.993Z,55.20
2018-09-06T20:23:02.916Z,55.30
2018-09-06T20:27:53.825Z,55.20
2018-09-06T20:32:44.745Z,55.30
2018-09-06T20:37:36.404Z,55.50
2018-09-06T20:42:27.333Z,55.30
2018-09-06T20:47:18.255Z,55.20
2018-09-06T20:52:09.164Z,55.30
2018-09-06T20:57:00.081Z,55.40
2018-09-06T21:01:51.041Z,55.40
2018-09-06T21:06:41.959Z,55.40
2018-09-06T21:11:33.716Z,55.40
2018-09-06T21:16:24.657Z,55.40
2018-09-06T21:21:15.612Z,55.50
2018-09-06T21:26:06.525Z,55.50
2018-09-06T21:30:58.194Z,55.60
2018-09-06T21:35:49.141Z,55.50
2018-09-06T21:40:40.053Z,55.50
2018-09-06T21:45:30.978Z,55.60
2018-09-06T21:50:21.900Z,55.60
2018-09-06T21:55:12.834Z,55.70
2018-09-06T22:00:04.159Z,55.80
2018-09-06T22:04:55.060Z,55.70
2018-09-06T22:09:46.024Z,55.70
2018-09-06T22:14:38.328Z,55.80
2018-09-06T22:19:29.673Z,55.60
2018-09-06T22:24:20.592Z,55.80
2018-09-06T22:29:11.991Z,55.80
2018-09-06T22:34:02.952Z,55.90
2018-09-06T22:38:53.860Z,55.90
2018-09-06T22:43:44.761Z,56.10
2018-09-06T22:48:36.441Z,56.70
2018-09-06T22:53:27.343Z,56.10
2018-09-06T22:58:19.110Z,56.10
2018-09-06T23:03:10.826Z,56.10
2018-09-06T23:08:01.707Z,56.10
2018-09-06T23:12:52.627Z,56.10
2018-09-06T23:17:43.552Z,56.30
2018-09-06T23:22:34.480Z,56.40
2018-09-06T23:27:25.428Z,56.50
2018-09-06T23:32:16.344Z,56.40
2018-09-06T23:37:08.016Z,56.40
2018-09-06T23:41:59.674Z,56.50
2018-09-06T23:46:50.610Z,56.50
2018-09-06T23:51:41.530Z,56.50
2018-09-06T23:56:32.462Z,56.40
